Airfield :
LOGIN :

Register | Disclaimer

   EN    FR    IT 

 










Legend :    VFR   Marginal VFR   IFR   Intensive IFR   Very Intensive IFR
Visi :
Ceiling :
>= 8 km
>= 3000ft
5 to 8 km
1000 to 3000 ft
1500m to 5 km
500 to 1000 ft
800 to 1500m
200 to 500 ft
< 800m
< 200 ft
Symbols :   Thunderstorms  Fog  Heavy snow  Heavy precipitations  Wind > 20 kt
SIGMETs :     Misc.  Thunderstorms  Icing  Turbulence  Mountain Waves  Volcanic Ashes







- Airport Elevation : 3 ft
- IATA code : DHR


EHKD - Den Helder De Kooy

CURRENT METAR :
  • 181155Z AUTO 32015KT 280V350 9999 -RA FEW015CB SCT024 BKN027 07/05 Q1015 RERAUPRA WHT

EXPIRED METARs :
  • 181140Z AUTO 32017G28KT 280V360 9000 R21/2500D SHUP FEW000 SCT011 FEW015CB BKN017 06/05 Q1015 GRN
  • 181134Z AUTO 30016G28KT 260V350 2000 R21/P3000N +RA FEW004 FEW015CB BKN016 BKN020 07/05 Q1015 YLO
  • 181125Z AUTO 29015KT 260V330 9999 -RA FEW008 FEW015CB SCT020 OVC026 08/06 Q1015 RERA REDZ WHT
  • 181119Z AUTO 29016KT 250V330 9999 -SHRA FEW011 FEW015CB BKN026 OVC032 07/06 Q1015 BLU
  • 181055Z AUTO 28022KT 250V310 9999 -RADZ FEW015CB BKN020 BKN026 09/06 Q1015 WHT
  • 181025Z AUTO 27022KT 9999 FEW016 SCT024 BKN041 09/06 Q1015 WHT
  • 180959Z AUTO 27024KT 9999 FEW018 SCT023 BKN027 09/06 Q1015 WHT
  • 180955Z AUTO 27022KT 250V310 9999 FEW018 SCT023 BKN026 09/06 Q1015 REDZ WHT 27022G32KT 9999 SCT020 BKN030 TEMPO 30026G36KT SCT015CB
  • 180946Z AUTO 27022KT 240V310 6000 -RA FEW019 SCT024 BKN035 09/05 Q1016 WHT 27022G32KT 9999 SCT020 BKN030 TEMPO 30026G36KT SCT015CB
  • 180942Z AUTO 27024KT 240V300 9999 -RA FEW018 SCT027 BKN035 09/05 Q1016 BLU 27022G32KT 9999 SCT020 BKN030 TEMPO 30026G36KT SCT015CB
  • 180925Z AUTO 27024G34KT 9999 FEW021 SCT051 OVC057 10/05 Q1016 BLU 27022G32KT 9999 SCT020 BKN030 TEMPO 30026G36KT SCT015CB
  • 180911Z AUTO 28021KT 250V310 9999 SCT019 BKN024 BKN027 09/05 Q1016 WHT 27022G32KT 9999 SCT020 BKN030 TEMPO 30026G36KT SCT015CB
  • 180907Z AUTO 28023KT 250V310 9999 FEW019 SCT024 BKN038 09/05 Q1016 WHT 27022G32KT 9999 SCT023 BKN030 TEMPO 30026G36KT SCT015CB

TAF TAF EHKD
Valid from the 18 at 10:00 until the 18 at 22:00 UTC


180924Z 1810/1822 27022G32KT 9999 SCT020 BKN045
BECMG 1810/1812 30019G30KT
TEMPO 1810/1814 31026G36KT FEW009 SCT015 SCT018CB BKN025
TEMPO 1819/1822 SCT018CB BKN025
No reported NOTAMs for that airfield.



MET'MAP, your aeronautical weather chart ! - Copyright ORBIFLY December 2007 - Disclaimer

ORBIFLY MET'MAP TEAM :

Programming & Development : Alexandra Zaïnal
Concept & Development : Baudouin d'Aumeries
Co-Development & Prog : Marc-Olivier Méhu
Technical & hardware support : Manuel Goepfert

Contact : metmap@orbifly.com




SOURCES & CREDITS :

   NOAA